createdAt,value
2023-09-17T00:02:38.343Z,11.20
2023-09-17T00:17:39.134Z,11.80
2023-09-17T00:32:40.037Z,14.80
2023-09-17T00:47:40.594Z,12.20
2023-09-17T01:02:43.847Z,9.80
2023-09-17T01:17:41.641Z,13.30
2023-09-17T01:32:42.435Z,12.30
2023-09-17T01:47:42.971Z,13.10
2023-09-17T02:02:43.892Z,12.00
2023-09-17T02:17:44.638Z,13.10
2023-09-17T02:32:45.201Z,12.40
2023-09-17T02:47:45.828Z,14.70
2023-09-17T03:02:46.407Z,12.20
2023-09-17T03:17:46.696Z,12.50
2023-09-17T03:33:01.972Z,12.30
2023-09-17T03:47:48.933Z,12.50
2023-09-17T04:02:48.108Z,11.90
2023-09-17T04:17:48.889Z,10.00
2023-09-17T04:32:51.694Z,12.50
2023-09-17T04:47:50.016Z,12.40
2023-09-17T05:02:51.024Z,14.10
2023-09-17T05:17:51.236Z,11.40
2023-09-17T05:32:51.947Z,10.90
2023-09-17T05:47:52.769Z,9.50
2023-09-17T06:02:53.259Z,12.30
2023-09-17T06:17:54.036Z,11.90
2023-09-17T06:32:54.932Z,10.50
2023-09-17T06:47:55.466Z,9.10
2023-09-17T07:02:55.852Z,9.10
2023-09-17T07:17:56.339Z,8.10
2023-09-17T07:32:57.176Z,7.20
2023-09-17T07:47:57.783Z,7.60
2023-09-17T08:02:58.349Z,5.60
2023-09-17T08:17:59.077Z,5.20
2023-09-17T08:32:59.617Z,4.80
2023-09-17T08:48:00.437Z,5.40
2023-09-17T09:03:01.363Z,4.50
2023-09-17T09:18:02.122Z,4.40
2023-09-17T09:33:02.522Z,4.70
2023-09-17T09:48:03.241Z,4.40
2023-09-17T10:03:03.733Z,4.50
2023-09-17T10:18:04.314Z,4.40
2023-09-17T10:33:05.058Z,4.10
2023-09-17T10:48:05.804Z,3.80
2023-09-17T11:03:06.477Z,4.00
2023-09-17T11:18:06.761Z,3.40
2023-09-17T11:33:07.475Z,4.20
2023-09-17T11:48:07.803Z,3.20
2023-09-17T12:03:08.338Z,3.60
2023-09-17T12:18:09.078Z,2.90
2023-09-17T12:33:09.851Z,2.90
2023-09-17T12:48:10.405Z,2.60
2023-09-17T13:03:10.832Z,2.40
2023-09-17T13:18:11.450Z,2.40
2023-09-17T13:33:12.236Z,2.90
2023-09-17T13:48:13.222Z,2.80
2023-09-17T14:03:13.722Z,2.60
2023-09-17T14:18:14.526Z,2.80
2023-09-17T14:33:15.374Z,2.90
2023-09-17T14:48:15.964Z,2.90
2023-09-17T15:03:17.107Z,2.70
2023-09-17T15:18:16.953Z,2.90
2023-09-17T15:33:17.339Z,2.90
2023-09-17T15:48:17.623Z,2.80
2023-09-17T16:03:20.441Z,3.00
2023-09-17T16:18:19.021Z,2.80
2023-09-17T16:33:19.958Z,2.90
2023-09-17T16:48:20.447Z,3.30
2023-09-17T17:03:21.074Z,3.50
2023-09-17T17:18:21.378Z,4.60
2023-09-17T17:33:21.935Z,4.00
2023-09-17T17:48:43.421Z,4.20
2023-09-17T18:03:24.533Z,4.10
2023-09-17T18:18:45.417Z,4.30
2023-09-17T18:33:24.824Z,4.80
2023-09-17T18:48:25.767Z,5.60
2023-09-17T19:03:26.626Z,5.30
2023-09-17T19:18:27.113Z,4.90
2023-09-17T19:33:27.889Z,4.70
2023-09-17T20:03:29.289Z,5.30
2023-09-17T20:18:29.824Z,6.10
2023-09-17T20:33:30.344Z,6.40
2023-09-17T20:48:31.074Z,6.40
2023-09-17T21:03:31.923Z,6.30
2023-09-17T21:18:37.553Z,6.60
2023-09-17T21:33:32.712Z,5.10
2023-09-17T21:48:33.497Z,7.40
2023-09-17T22:03:34.414Z,8.10
2023-09-17T22:18:35.199Z,7.80
2023-09-17T22:33:35.429Z,8.40
2023-09-17T22:48:35.954Z,8.50
2023-09-17T23:03:36.611Z,10.00
2023-09-17T23:18:37.319Z,9.60
2023-09-17T23:33:38.174Z,11.20
2023-09-17T23:48:39.116Z,11.30
